Time;durP1;ratioP1;P1;durP2;ratioP2;P2;SDS_P1;SDS_P2;PMS_P1;PMS_P2;Temp;Humidity;BMP_temperature;BMP_pressure;BME280_temperature;BME280_humidity;BME280_pressure;Samples;Min_cycle;Max_cycle;Signal;HPM_P1;HPM_P2
2021/05/31 00:01:16;;;;;;;10.90;7.97;;;;;;;;;;5053290;28;20448;-59
2021/05/31 00:03:43;;;;;;;12.33;8.20;;;;;;;;;;5053213;28;20459;-59
2021/05/31 00:06:10;;;;;;;10.57;8.63;;;;;;;;;;5054081;28;20439;-59
2021/05/31 00:08:37;;;;;;;11.87;8.47;;;;;;;;;;5053091;28;20487;-59
2021/05/31 00:11:04;;;;;;;10.87;8.30;;;;;;;;;;5053015;28;20455;-58
2021/05/31 00:13:32;;;;;;;9.57;8.60;;;;;;;;;;5052865;28;20468;-59
2021/05/31 00:15:58;;;;;;;12.30;7.57;;;;;;;;;;5052837;28;20452;-59
2021/05/31 00:18:25;;;;;;;11.57;8.60;;;;;;;;;;5053111;28;20444;-59
2021/05/31 00:20:52;;;;;;;12.90;9.43;;;;;;;;;;5052766;28;20448;-59
2021/05/31 00:23:19;;;;;;;12.97;8.70;;;;;;;;;;5053917;28;20482;-58
2021/05/31 00:25:46;;;;;;;11.53;8.53;;;;;;;;;;5057211;28;20452;-59
2021/05/31 00:28:13;;;;;;;10.60;8.93;;;;;;;;;;5056772;28;20476;-58
2021/05/31 00:30:41;;;;;;;12.20;9.20;;;;;;;;;;5057107;28;20463;-59
2021/05/31 00:33:07;;;;;;;9.70;8.70;;;;;;;;;;5056671;28;21056;-59
2021/05/31 00:35:34;;;;;;;11.87;10.30;;;;;;;;;;5057048;28;20452;-59
2021/05/31 00:38:01;;;;;;;9.37;8.40;;;;;;;;;;5057017;28;20792;-59
2021/05/31 00:40:28;;;;;;;12.57;10.30;;;;;;;;;;5056949;28;20501;-59
2021/05/31 00:42:55;;;;;;;10.20;9.20;;;;;;;;;;5056912;28;20468;-59
2021/05/31 00:45:22;;;;;;;8.60;7.60;;;;;;;;;;5056517;28;20447;-59
2021/05/31 00:47:51;;;;;;;11.20;8.37;;;;;;;;;;5056727;28;20440;-59
2021/05/31 00:50:18;;;;;;;9.90;8.90;;;;;;;;;;5056781;28;20822;-59
2021/05/31 00:52:45;;;;;;;10.70;9.00;;;;;;;;;;5056366;28;20475;-59
2021/05/31 00:55:12;;;;;;;11.30;10.10;;;;;;;;;;5056707;28;20444;-59
2021/05/31 00:57:39;;;;;;;11.80;9.97;;;;;;;;;;5056328;28;20444;-59
2021/05/31 01:00:07;;;;;;;11.53;9.10;;;;;;;;;;5056245;28;20931;-58
2021/05/31 01:02:34;;;;;;;11.00;9.27;;;;;;;;;;5056389;28;20475;-58
2021/05/31 01:05:02;;;;;;;10.90;8.33;;;;;;;;;;5056871;28;20444;-59
2021/05/31 01:07:34;;;;;;;10.47;9.37;;;;;;;;;;5056465;28;20443;-59
2021/05/31 01:10:03;;;;;;;9.90;8.60;;;;;;;;;;5056342;28;20464;-59
2021/05/31 01:12:32;;;;;;;14.23;9.13;;;;;;;;;;5055910;28;20845;-59
2021/05/31 01:15:07;;;;;;;13.10;9.23;;;;;;;;;;5056288;28;20440;-59
2021/05/31 01:17:38;;;;;;;12.33;10.07;;;;;;;;;;5056338;28;20489;-59
2021/05/31 01:20:09;;;;;;;11.27;10.07;;;;;;;;;;5056071;28;20474;-59
2021/05/31 01:22:37;;;;;;;12.87;9.60;;;;;;;;;;5055865;28;20472;-59
2021/05/31 01:25:09;;;;;;;12.20;9.20;;;;;;;;;;5056106;28;20444;-59
2021/05/31 01:27:38;;;;;;;11.00;8.87;;;;;;;;;;5056148;28;20451;-58
2021/05/31 01:30:09;;;;;;;11.53;9.97;;;;;;;;;;5056063;28;20487;-58
2021/05/31 01:32:36;;;;;;;10.73;9.67;;;;;;;;;;5055704;28;20476;-59
2021/05/31 01:35:04;;;;;;;9.87;8.97;;;;;;;;;;5054944;28;20444;-58
2021/05/31 01:37:32;;;;;;;11.87;9.50;;;;;;;;;;5056154;28;20470;-58
2021/05/31 01:40:02;;;;;;;10.43;9.30;;;;;;;;;;5055873;28;20451;-58
2021/05/31 01:42:28;;;;;;;20.20;10.50;;;;;;;;;;5055780;28;20464;-58
2021/05/31 01:44:55;;;;;;;9.80;8.40;;;;;;;;;;5056141;28;20443;-58
2021/05/31 01:47:24;;;;;;;11.20;9.43;;;;;;;;;;5055879;28;20451;-58
2021/05/31 01:49:51;;;;;;;9.70;8.13;;;;;;;;;;5055929;28;20529;-58
2021/05/31 01:52:18;;;;;;;10.47;8.43;;;;;;;;;;5055680;28;20463;-58
2021/05/31 01:54:45;;;;;;;10.53;8.90;;;;;;;;;;5055770;28;20448;-58
2021/05/31 01:57:12;;;;;;;9.90;8.77;;;;;;;;;;5055400;28;20453;-58
2021/05/31 01:59:38;;;;;;;9.47;8.57;;;;;;;;;;5055623;28;20444;-58
2021/05/31 02:02:05;;;;;;;11.47;7.93;;;;;;;;;;5055385;28;20448;-58
2021/05/31 02:04:33;;;;;;;9.60;7.90;;;;;;;;;;5055483;28;20455;-58
2021/05/31 02:07:00;;;;;;;9.57;8.23;;;;;;;;;;5055084;28;20790;-59
2021/05/31 02:09:27;;;;;;;9.97;8.57;;;;;;;;;;5055075;28;20480;-59
2021/05/31 02:11:57;;;;;;;10.63;8.00;;;;;;;;;;5055219;28;20450;-59
2021/05/31 02:14:27;;;;;;;12.07;8.85;;;;;;;;;;5055228;28;20442;-58
2021/05/31 02:16:57;;;;;;;9.67;7.30;;;;;;;;;;5055165;28;20210;-59
2021/05/31 02:19:24;;;;;;;16.20;8.60;;;;;;;;;;5055103;28;20425;-58
2021/05/31 02:21:53;;;;;;;8.17;7.30;;;;;;;;;;5054648;28;20447;-60
2021/05/31 02:24:20;;;;;;;8.93;7.10;;;;;;;;;;5054680;28;20440;-59
2021/05/31 02:26:47;;;;;;;8.33;7.47;;;;;;;;;;5054958;28;20821;-59
2021/05/31 02:29:14;;;;;;;8.80;7.33;;;;;;;;;;5054510;28;20821;-59
2021/05/31 02:31:40;;;;;;;9.40;7.28;;;;;;;;;;5054479;28;20955;-59
2021/05/31 02:34:08;;;;;;;9.43;7.70;;;;;;;;;;5078651;22;20229;-62
2021/05/31 02:36:34;;;;;;;8.23;7.10;;;;;;;;;;5054808;28;20448;-62
2021/05/31 02:39:03;;;;;;;8.40;7.30;;;;;;;;;;5054520;28;20947;-62
2021/05/31 02:41:30;;;;;;;7.87;6.83;;;;;;;;;;5054545;28;20439;-62
2021/05/31 02:43:56;;;;;;;9.43;7.23;;;;;;;;;;5054293;28;20464;-62
2021/05/31 02:46:23;;;;;;;8.60;7.68;;;;;;;;;;5054438;28;20445;-62
2021/05/31 02:48:50;;;;;;;10.33;7.47;;;;;;;;;;5054235;28;20224;-62
2021/05/31 02:51:17;;;;;;;8.30;6.60;;;;;;;;;;5054512;28;20448;-62
2021/05/31 02:53:43;;;;;;;7.67;6.87;;;;;;;;;;5054502;28;20832;-62
2021/05/31 02:56:12;;;;;;;10.95;7.30;;;;;;;;;;5054169;28;20951;-62
2021/05/31 02:58:39;;;;;;;9.15;6.30;;;;;;;;;;5054914;28;20202;-62
2021/05/31 03:01:05;;;;;;;9.88;6.82;;;;;;;;;;5054394;28;20252;-62
2021/05/31 03:03:32;;;;;;;8.10;7.03;;;;;;;;;;5053905;28;20705;-62
2021/05/31 03:05:59;;;;;;;8.13;5.93;;;;;;;;;;5053949;28;20209;-61
2021/05/31 03:08:26;;;;;;;7.90;7.20;;;;;;;;;;5054140;28;20476;-62
2021/05/31 03:10:54;;;;;;;8.63;6.63;;;;;;;;;;5054096;28;20450;-61
2021/05/31 03:13:22;;;;;;;8.25;7.00;;;;;;;;;;5054096;28;20487;-62
2021/05/31 03:15:49;;;;;;;7.10;6.32;;;;;;;;;;5054031;28;20201;-61
2021/05/31 03:18:16;;;;;;;8.80;6.57;;;;;;;;;;5053711;28;20575;-62
2021/05/31 03:20:43;;;;;;;7.03;6.33;;;;;;;;;;5055881;28;20497;-62
2021/05/31 03:23:10;;;;;;;7.35;6.05;;;;;;;;;;5055908;28;20475;-62
2021/05/31 03:25:37;;;;;;;7.90;6.57;;;;;;;;;;5055658;28;20205;-61
2021/05/31 03:28:05;;;;;;;7.95;6.80;;;;;;;;;;5055644;28;20707;-61
2021/05/31 03:30:33;;;;;;;7.03;6.27;;;;;;;;;;5055974;28;20213;-61
2021/05/31 03:33:00;;;;;;;7.97;6.97;;;;;;;;;;5053822;28;20863;-61
2021/05/31 03:35:27;;;;;;;7.50;6.10;;;;;;;;;;5058024;28;20440;-61
2021/05/31 03:37:54;;;;;;;9.88;7.15;;;;;;;;;;5053844;28;20817;-62
2021/05/31 03:40:22;;;;;;;7.35;6.60;;;;;;;;;;5053307;28;20739;-62
2021/05/31 03:42:48;;;;;;;7.87;6.70;;;;;;;;;;5053729;28;20217;-62
2021/05/31 03:45:15;;;;;;;7.78;5.65;;;;;;;;;;5054164;28;20451;-62
2021/05/31 03:47:44;;;;;;;7.40;6.00;;;;;;;;;;5053221;28;20202;-61
2021/05/31 03:50:11;;;;;;;6.95;6.22;;;;;;;;;;5053596;28;20484;-61
2021/05/31 03:52:38;;;;;;;6.87;5.63;;;;;;;;;;5053481;28;20221;-61
2021/05/31 03:55:05;;;;;;;8.23;6.63;;;;;;;;;;5053441;28;20454;-62
2021/05/31 03:57:32;;;;;;;6.63;5.93;;;;;;;;;;5053213;28;20452;-62
2021/05/31 03:59:59;;;;;;;6.80;5.85;;;;;;;;;;5053259;28;20193;-62
2021/05/31 04:02:26;;;;;;;6.50;5.87;;;;;;;;;;5053244;28;20259;-61
2021/05/31 04:13:41;;;;;;;7.53;5.50;;;;;;;;;;5111229;28;20441;-59
2021/05/31 04:16:08;;;;;;;6.50;5.00;;;;;;;;;;5110671;28;20438;-59
2021/05/31 04:18:35;;;;;;;6.10;5.40;;;;;;;;;;5129613;22;20558;-60
2021/05/31 04:21:01;;;;;;;5.37;4.87;;;;;;;;;;5050194;28;20440;-60
2021/05/31 04:23:30;;;;;;;5.60;4.97;;;;;;;;;;5050273;28;20440;-61
2021/05/31 04:25:56;;;;;;;5.43;4.70;;;;;;;;;;5049899;28;20471;-60
2021/05/31 04:28:23;;;;;;;6.90;4.80;;;;;;;;;;5049513;28;20967;-60
2021/05/31 04:30:50;;;;;;;5.67;4.90;;;;;;;;;;5050097;28;20940;-60
2021/05/31 04:33:16;;;;;;;8.77;4.67;;;;;;;;;;5049553;28;20452;-61
2021/05/31 04:35:43;;;;;;;4.50;4.10;;;;;;;;;;5088384;22;20488;-58
2021/05/31 04:38:10;;;;;;;5.70;4.33;;;;;;;;;;5049543;28;20444;-59
2021/05/31 04:40:38;;;;;;;4.87;4.47;;;;;;;;;;5049912;28;20440;-58
2021/05/31 04:43:05;;;;;;;6.10;4.27;;;;;;;;;;5050051;28;20490;-59
2021/05/31 04:45:32;;;;;;;7.37;4.77;;;;;;;;;;5049971;28;20537;-59
2021/05/31 04:47:58;;;;;;;6.53;5.67;;;;;;;;;;5049811;28;20510;-59
2021/05/31 04:50:26;;;;;;;5.03;4.60;;;;;;;;;;5074179;22;20496;-60
2021/05/31 04:52:52;;;;;;;4.53;4.13;;;;;;;;;;5049938;28;20482;-60
2021/05/31 04:55:19;;;;;;;6.40;4.17;;;;;;;;;;5049584;28;20455;-61
2021/05/31 04:57:48;;;;;;;5.93;4.60;;;;;;;;;;5050313;28;20982;-61
2021/05/31 05:00:15;;;;;;;5.07;4.67;;;;;;;;;;5049202;28;20539;-60
2021/05/31 05:05:15;;;;;;;6.30;4.70;;;;;;;;;;5103277;22;20483;-58
2021/05/31 05:07:45;;;;;;;7.73;4.60;;;;;;;;;;5049140;28;20992;-59
2021/05/31 05:10:13;;;;;;;7.40;4.27;;;;;;;;;;5049549;28;20437;-59
2021/05/31 05:12:39;;;;;;;9.03;5.10;;;;;;;;;;5049516;28;20551;-58
2021/05/31 05:15:08;;;;;;;10.23;5.00;;;;;;;;;;5049302;28;20848;-58
2021/05/31 05:17:35;;;;;;;6.40;4.33;;;;;;;;;;5061992;22;20493;-61
2021/05/31 05:20:02;;;;;;;6.93;3.90;;;;;;;;;;5016276;28;20501;-61
2021/05/31 05:22:28;;;;;;;7.23;4.47;;;;;;;;;;5015952;28;20538;-61
2021/05/31 05:24:55;;;;;;;6.13;4.40;;;;;;;;;;5015781;28;20500;-61
2021/05/31 05:27:22;;;;;;;4.80;4.30;;;;;;;;;;5015287;28;20491;-62
2021/05/31 05:29:49;;;;;;;13.60;5.27;;;;;;;;;;5015867;28;20458;-61
2021/05/31 05:32:17;;;;;;;6.67;4.23;;;;;;;;;;5016260;28;20501;-60
2021/05/31 05:37:16;;;;;;;5.67;3.93;;;;;;;;;;5034721;28;20468;-57
2021/05/31 05:40:07;;;;;;;6.53;4.40;;;;;;;;;;5037002;28;20508;-58
2021/05/31 05:42:56;;;;;;;7.07;4.33;;;;;;;;;;5035408;28;20422;-58
2021/05/31 05:45:43;;;;;;;5.47;4.20;;;;;;;;;;5035067;28;21043;-58
2021/05/31 05:48:13;;;;;;;11.73;4.80;;;;;;;;;;5036414;28;20470;-55
2021/05/31 05:50:40;;;;;;;7.30;4.27;;;;;;;;;;5035007;28;20451;-57
2021/05/31 05:53:07;;;;;;;9.57;4.80;;;;;;;;;;5034979;28;20447;-58
2021/05/31 05:55:34;;;;;;;6.63;4.20;;;;;;;;;;5034759;28;20482;-58
2021/05/31 05:58:00;;;;;;;12.00;5.30;;;;;;;;;;5034834;28;20439;-58
2021/05/31 06:00:29;;;;;;;5.53;4.00;;;;;;;;;;5034589;28;20858;-58
2021/05/31 06:02:56;;;;;;;8.70;3.90;;;;;;;;;;5034818;28;20446;-57
2021/05/31 06:05:24;;;;;;;6.70;3.93;;;;;;;;;;5035017;28;20509;-57
2021/05/31 06:07:52;;;;;;;6.57;4.33;;;;;;;;;;5035229;28;20481;-62
2021/05/31 06:10:19;;;;;;;5.80;4.10;;;;;;;;;;5036292;28;20460;-59
2021/05/31 06:12:46;;;;;;;4.67;4.27;;;;;;;;;;5034641;28;20501;-56
2021/05/31 06:15:14;;;;;;;7.47;3.83;;;;;;;;;;5034689;28;20469;-58
2021/05/31 06:17:41;;;;;;;6.03;4.60;;;;;;;;;;5034431;28;20451;-58
2021/05/31 06:20:09;;;;;;;5.00;4.17;;;;;;;;;;5034426;28;20454;-58
2021/05/31 06:22:40;;;;;;;5.50;3.70;;;;;;;;;;5034735;28;20449;-58
2021/05/31 06:25:08;;;;;;;6.10;3.83;;;;;;;;;;5034352;28;20461;-58
2021/05/31 06:27:35;;;;;;;7.57;4.50;;;;;;;;;;5032938;28;21019;-57
2021/05/31 06:30:01;;;;;;;5.30;3.50;;;;;;;;;;5033539;28;20445;-58
2021/05/31 06:32:28;;;;;;;5.20;3.63;;;;;;;;;;5034195;28;20890;-58
2021/05/31 06:34:56;;;;;;;7.30;4.00;;;;;;;;;;5035222;28;20818;-57
2021/05/31 06:37:23;;;;;;;5.97;3.13;;;;;;;;;;5034306;28;20430;-59
2021/05/31 06:39:51;;;;;;;6.90;4.07;;;;;;;;;;5034327;28;20445;-58
2021/05/31 06:42:17;;;;;;;3.87;3.43;;;;;;;;;;5034142;28;20450;-57
2021/05/31 06:44:45;;;;;;;5.37;3.40;;;;;;;;;;5033969;28;20954;-58
2021/05/31 06:47:11;;;;;;;4.13;2.70;;;;;;;;;;5034133;28;20473;-60
2021/05/31 06:49:40;;;;;;;4.57;3.50;;;;;;;;;;5034345;28;20817;-59
2021/05/31 06:52:07;;;;;;;5.23;3.70;;;;;;;;;;5034113;28;20452;-60
2021/05/31 06:54:33;;;;;;;5.37;4.07;;;;;;;;;;5034173;28;20451;-59
2021/05/31 06:57:02;;;;;;;5.10;3.83;;;;;;;;;;5033936;28;20465;-59
2021/05/31 06:59:29;;;;;;;7.40;3.60;;;;;;;;;;5034091;28;20448;-59
2021/05/31 07:01:55;;;;;;;7.00;4.40;;;;;;;;;;5033430;28;20517;-58
2021/05/31 07:04:22;;;;;;;6.57;3.53;;;;;;;;;;5033866;28;20445;-59
2021/05/31 07:06:49;;;;;;;9.30;3.83;;;;;;;;;;5035331;28;20891;-59
2021/05/31 07:09:16;;;;;;;6.03;3.63;;;;;;;;;;5060658;22;20996;-59
2021/05/31 07:11:45;;;;;;;5.77;3.80;;;;;;;;;;5053358;28;20452;-59
2021/05/31 07:14:18;;;;;;;4.57;2.93;;;;;;;;;;5053328;28;20448;-59
2021/05/31 07:16:45;;;;;;;4.07;2.90;;;;;;;;;;5053512;28;20433;-59
2021/05/31 07:19:12;;;;;;;3.23;2.93;;;;;;;;;;5053016;28;20491;-59
2021/05/31 07:21:39;;;;;;;4.60;2.93;;;;;;;;;;5053185;28;20440;-59
2021/05/31 07:24:07;;;;;;;3.77;3.37;;;;;;;;;;5069117;22;20520;-57
2021/05/31 07:26:34;;;;;;;3.10;2.80;;;;;;;;;;5052462;28;20594;-58
2021/05/31 07:29:00;;;;;;;6.17;3.03;;;;;;;;;;5053097;28;20440;-59
2021/05/31 07:31:29;;;;;;;3.20;2.77;;;;;;;;;;5053394;28;20505;-59
2021/05/31 07:33:55;;;;;;;3.10;2.80;;;;;;;;;;5053142;28;20860;-59
2021/05/31 07:36:22;;;;;;;3.77;2.97;;;;;;;;;;5032814;28;20475;-59
2021/05/31 07:38:50;;;;;;;5.47;3.50;;;;;;;;;;5033376;28;20460;-59
2021/05/31 07:41:17;;;;;;;4.90;2.97;;;;;;;;;;5034159;28;20445;-59
2021/05/31 07:43:44;;;;;;;3.73;3.30;;;;;;;;;;5060460;22;20487;-59
2021/05/31 07:46:12;;;;;;;4.53;3.20;;;;;;;;;;5072458;28;20447;-59
2021/05/31 07:48:41;;;;;;;4.60;3.20;;;;;;;;;;5072882;28;20440;-59
2021/05/31 07:51:16;;;;;;;4.50;3.20;;;;;;;;;;5072679;28;20857;-59
2021/05/31 07:53:43;;;;;;;5.43;3.27;;;;;;;;;;5072730;28;20488;-59
2021/05/31 07:56:10;;;;;;;3.37;3.07;;;;;;;;;;5072442;28;20466;-59
2021/05/31 07:58:37;;;;;;;3.73;2.70;;;;;;;;;;5108668;22;20495;-59
2021/05/31 08:01:04;;;;;;;3.93;2.70;;;;;;;;;;5053239;28;20455;-59
2021/05/31 08:03:30;;;;;;;3.80;2.87;;;;;;;;;;5052898;28;20444;-58
2021/05/31 08:05:59;;;;;;;3.30;2.93;;;;;;;;;;5052740;28;20448;-59
2021/05/31 08:08:26;;;;;;;2.50;2.30;;;;;;;;;;5052174;28;20853;-59
2021/05/31 08:10:54;;;;;;;3.17;2.40;;;;;;;;;;5052661;28;20448;-59
2021/05/31 08:13:20;;;;;;;2.60;2.20;;;;;;;;;;5052630;28;20847;-60
2021/05/31 08:15:47;;;;;;;6.47;2.77;;;;;;;;;;5054049;28;20865;-59
2021/05/31 08:18:14;;;;;;;6.53;2.70;;;;;;;;;;5052236;28;20985;-58
2021/05/31 08:20:41;;;;;;;2.93;2.63;;;;;;;;;;5052775;28;20813;-60
2021/05/31 08:23:09;;;;;;;4.67;2.80;;;;;;;;;;5052493;28;20448;-59
2021/05/31 08:25:36;;;;;;;3.30;2.70;;;;;;;;;;5052738;28;20501;-60
2021/05/31 08:28:03;;;;;;;3.50;2.00;;;;;;;;;;5052776;28;20483;-60
2021/05/31 08:30:30;;;;;;;4.23;2.30;;;;;;;;;;5053480;28;20456;-59
2021/05/31 08:32:57;;;;;;;1.93;1.70;;;;;;;;;;5052939;28;20534;-59
2021/05/31 08:35:24;;;;;;;2.73;1.80;;;;;;;;;;5052813;28;20500;-59
2021/05/31 08:37:51;;;;;;;2.87;1.90;;;;;;;;;;5053014;28;20454;-59
2021/05/31 08:40:19;;;;;;;3.47;2.50;;;;;;;;;;5053199;28;20474;-60
2021/05/31 08:45:15;;;;;;;4.30;2.10;;;;;;;;;;5069270;22;20579;-59
2021/05/31 08:47:43;;;;;;;4.80;2.40;;;;;;;;;;5052228;28;20476;-60
2021/05/31 08:50:10;;;;;;;3.07;1.87;;;;;;;;;;5052568;28;20820;-61
2021/05/31 08:52:37;;;;;;;2.93;2.30;;;;;;;;;;5053420;28;20452;-60
2021/05/31 08:55:05;;;;;;;3.07;2.00;;;;;;;;;;5059019;28;20478;-59
2021/05/31 08:57:33;;;;;;;3.63;2.40;;;;;;;;;;5084470;22;20506;-59
2021/05/31 09:00:00;;;;;;;5.40;2.00;;;;;;;;;;5076063;28;20504;-58
2021/05/31 09:02:31;;;;;;;6.20;2.57;;;;;;;;;;5076384;28;20443;-57
2021/05/31 09:04:58;;;;;;;5.40;2.83;;;;;;;;;;5076212;28;20427;-59
2021/05/31 09:07:25;;;;;;;2.53;1.70;;;;;;;;;;5075675;28;20532;-59
2021/05/31 09:09:54;;;;;;;1.60;1.50;;;;;;;;;;5075796;28;20451;-59
2021/05/31 09:12:23;;;;;;;3.23;1.70;;;;;;;;;;5075826;28;20813;-57
2021/05/31 09:14:56;;;;;;;7.87;2.50;;;;;;;;;;5077229;28;20443;-59
2021/05/31 09:17:26;;;;;;;3.33;1.80;;;;;;;;;;5075856;28;20465;-58
2021/05/31 09:19:52;;;;;;;4.20;2.10;;;;;;;;;;5077129;28;20446;-58
2021/05/31 09:22:20;;;;;;;2.60;1.57;;;;;;;;;;5075481;28;20996;-60
2021/05/31 09:24:53;;;;;;;2.30;1.70;;;;;;;;;;5075582;28;20435;-58
2021/05/31 09:27:20;;;;;;;2.80;1.43;;;;;;;;;;5075329;28;21004;-60
2021/05/31 09:29:55;;;;;;;2.03;1.70;;;;;;;;;;5075196;28;21008;-59
2021/05/31 09:32:22;;;;;;;2.60;1.87;;;;;;;;;;5075577;28;20427;-59
2021/05/31 09:35:08;;;;;;;3.17;1.97;;;;;;;;;;5075708;28;20531;-60
2021/05/31 09:37:44;;;;;;;3.53;1.70;;;;;;;;;;5075415;28;20466;-60
2021/05/31 09:40:11;;;;;;;2.50;2.27;;;;;;;;;;5075329;28;20910;-59
2021/05/31 09:42:48;;;;;;;3.90;1.80;;;;;;;;;;5075582;28;20869;-59
2021/05/31 09:45:16;;;;;;;1.97;1.47;;;;;;;;;;5075745;28;20472;-59
2021/05/31 09:47:43;;;;;;;3.00;2.40;;;;;;;;;;5075317;28;20489;-59
2021/05/31 09:50:10;;;;;;;3.30;2.30;;;;;;;;;;5116806;22;20861;-59
2021/05/31 09:52:37;;;;;;;2.47;2.13;;;;;;;;;;5055034;28;20514;-59
2021/05/31 09:55:05;;;;;;;1.87;1.40;;;;;;;;;;5054790;28;20506;-59
2021/05/31 09:57:32;;;;;;;1.77;1.53;;;;;;;;;;5055647;28;20523;-60
2021/05/31 10:00:02;;;;;;;2.10;1.50;;;;;;;;;;5088581;22;20932;-60
2021/05/31 10:02:41;;;;;;;1.83;1.63;;;;;;;;;;5054757;28;20459;-61
2021/05/31 10:05:15;;;;;;;2.10;1.53;;;;;;;;;;5054613;28;20440;-60
2021/05/31 10:07:49;;;;;;;1.20;1.10;;;;;;;;;;5054534;28;20527;-61
2021/05/31 10:10:16;;;;;;;2.77;1.87;;;;;;;;;;5035025;28;20457;-61
2021/05/31 10:12:42;;;;;;;3.60;1.63;;;;;;;;;;5035084;28;20499;-60
2021/05/31 10:15:11;;;;;;;2.03;1.67;;;;;;;;;;5035388;28;20933;-60
2021/05/31 10:17:40;;;;;;;1.70;1.40;;;;;;;;;;5034917;28;20457;-60
2021/05/31 10:20:07;;;;;;;3.20;2.50;;;;;;;;;;5034554;28;20468;-60
2021/05/31 10:22:34;;;;;;;3.43;1.83;;;;;;;;;;5034254;28;20533;-60
2021/05/31 10:25:02;;;;;;;3.70;2.00;;;;;;;;;;5035253;28;20457;-61
2021/05/31 10:27:30;;;;;;;3.47;1.40;;;;;;;;;;5034222;28;21026;-60
2021/05/31 10:29:58;;;;;;;1.97;1.33;;;;;;;;;;5035892;28;20500;-59
2021/05/31 10:32:25;;;;;;;3.20;1.63;;;;;;;;;;5034753;28;20457;-60
2021/05/31 10:34:54;;;;;;;4.90;2.23;;;;;;;;;;5034066;28;20449;-60
2021/05/31 10:37:23;;;;;;;2.60;1.40;;;;;;;;;;5034103;28;20448;-61
2021/05/31 10:40:00;;;;;;;3.13;1.67;;;;;;;;;;5034997;28;21015;-60
2021/05/31 10:42:26;;;;;;;3.00;1.50;;;;;;;;;;5033892;28;20460;-59
2021/05/31 10:44:53;;;;;;;3.30;1.97;;;;;;;;;;5033696;28;20949;-59
2021/05/31 10:47:26;;;;;;;3.10;1.50;;;;;;;;;;5034321;28;21000;-58
2021/05/31 10:50:01;;;;;;;1.60;1.50;;;;;;;;;;5033716;28;21020;-59
2021/05/31 10:52:28;;;;;;;3.97;1.60;;;;;;;;;;5033955;28;20487;-61
2021/05/31 10:54:55;;;;;;;3.13;1.40;;;;;;;;;;5034053;28;20494;-60
2021/05/31 10:57:22;;;;;;;2.50;2.00;;;;;;;;;;5034029;28;20442;-60
2021/05/31 10:59:49;;;;;;;2.27;1.60;;;;;;;;;;5033311;28;20482;-61
2021/05/31 11:02:23;;;;;;;3.27;1.90;;;;;;;;;;5033886;28;20448;-60
2021/05/31 11:04:50;;;;;;;4.83;1.83;;;;;;;;;;5034085;28;20458;-60
2021/05/31 11:07:26;;;;;;;3.10;2.00;;;;;;;;;;5033893;28;20480;-58
2021/05/31 11:09:54;;;;;;;8.00;1.70;;;;;;;;;;5035229;28;20473;-60
2021/05/31 11:12:28;;;;;;;2.27;1.60;;;;;;;;;;5033599;28;20451;-60
2021/05/31 11:15:06;;;;;;;2.00;1.60;;;;;;;;;;5033601;28;20424;-60
2021/05/31 11:17:33;;;;;;;4.07;1.80;;;;;;;;;;5034391;28;20518;-60
2021/05/31 11:20:10;;;;;;;2.23;1.40;;;;;;;;;;5034534;28;20477;-60
2021/05/31 11:22:38;;;;;;;3.00;2.07;;;;;;;;;;5033834;28;20453;-60
2021/05/31 11:25:06;;;;;;;3.00;1.67;;;;;;;;;;5033216;28;20448;-59
2021/05/31 11:27:34;;;;;;;2.60;2.10;;;;;;;;;;5032951;28;21071;-59
2021/05/31 11:30:02;;;;;;;2.30;1.73;;;;;;;;;;5033206;28;20820;-60
2021/05/31 11:32:29;;;;;;;2.33;1.80;;;;;;;;;;5033013;28;20542;-59
2021/05/31 11:34:56;;;;;;;3.00;1.67;;;;;;;;;;5032762;28;20447;-60
2021/05/31 11:37:23;;;;;;;2.97;1.70;;;;;;;;;;5033244;28;20432;-60
2021/05/31 11:39:51;;;;;;;2.27;1.77;;;;;;;;;;5033321;28;20463;-60
2021/05/31 11:42:18;;;;;;;2.97;2.23;;;;;;;;;;5033179;28;20509;-57
2021/05/31 11:44:49;;;;;;;2.40;1.70;;;;;;;;;;5033159;28;20448;-60
2021/05/31 11:47:20;;;;;;;2.93;1.57;;;;;;;;;;5033151;28;20468;-59
2021/05/31 11:49:47;;;;;;;3.50;1.60;;;;;;;;;;5033789;28;20464;-57
2021/05/31 11:52:14;;;;;;;1.83;1.67;;;;;;;;;;5032933;28;20820;-58
2021/05/31 11:54:42;;;;;;;2.03;1.50;;;;;;;;;;5087825;22;20497;-63
2021/05/31 11:57:12;;;;;;;1.80;1.40;;;;;;;;;;5073568;28;20556;-60
2021/05/31 11:59:39;;;;;;;2.87;2.13;;;;;;;;;;5073811;28;20454;-60
2021/05/31 12:02:06;;;;;;;2.63;1.63;;;;;;;;;;5074936;28;20455;-60
2021/05/31 12:04:33;;;;;;;1.40;1.30;;;;;;;;;;5073524;28;20531;-60
2021/05/31 12:07:01;;;;;;;2.50;1.40;;;;;;;;;;5072978;28;21063;-60
2021/05/31 12:09:28;;;;;;;2.13;1.40;;;;;;;;;;5073198;28;20470;-63
2021/05/31 12:11:55;;;;;;;1.13;1.03;;;;;;;;;;5072935;28;20591;-60
2021/05/31 12:14:25;;;;;;;2.30;1.93;;;;;;;;;;5073148;28;20529;-62
2021/05/31 12:16:58;;;;;;;2.73;1.40;;;;;;;;;;5073295;28;20571;-61
2021/05/31 12:19:26;;;;;;;2.53;1.37;;;;;;;;;;5073088;28;20435;-60
2021/05/31 12:21:55;;;;;;;3.10;1.70;;;;;;;;;;5072710;28;20470;-61
2021/05/31 12:24:28;;;;;;;1.73;1.47;;;;;;;;;;5072630;28;20481;-61
2021/05/31 12:26:58;;;;;;;3.67;2.13;;;;;;;;;;5101099;22;20488;-60
2021/05/31 12:29:33;;;;;;;3.13;1.67;;;;;;;;;;5056866;28;20470;-61
2021/05/31 12:32:00;;;;;;;2.60;1.57;;;;;;;;;;5056922;28;20805;-60
2021/05/31 12:34:27;;;;;;;1.60;1.50;;;;;;;;;;5056654;28;20535;-59
2021/05/31 12:36:54;;;;;;;1.97;1.60;;;;;;;;;;5056706;28;20469;-60
2021/05/31 12:39:21;;;;;;;2.10;1.70;;;;;;;;;;5056707;28;20850;-60
2021/05/31 12:41:48;;;;;;;1.60;1.50;;;;;;;;;;5056308;28;20954;-60
2021/05/31 12:44:15;;;;;;;2.53;1.63;;;;;;;;;;5056522;28;20525;-59
2021/05/31 12:46:44;;;;;;;2.30;1.60;;;;;;;;;;5056046;28;20471;-58
2021/05/31 12:49:14;;;;;;;1.77;1.60;;;;;;;;;;5055947;28;20944;-58
2021/05/31 12:51:51;;;;;;;3.17;1.60;;;;;;;;;;5056320;28;20447;-59
2021/05/31 12:54:18;;;;;;;2.80;1.97;;;;;;;;;;5056365;28;20938;-58
2021/05/31 12:56:45;;;;;;;1.80;1.50;;;;;;;;;;5056015;28;20473;-58
2021/05/31 12:59:12;;;;;;;1.60;1.33;;;;;;;;;;5055807;28;20819;-57
2021/05/31 13:01:42;;;;;;;2.23;1.50;;;;;;;;;;5080436;22;20497;-59
2021/05/31 13:04:10;;;;;;;3.50;1.60;;;;;;;;;;5079962;22;20494;-58
2021/05/31 13:06:38;;;;;;;1.80;1.60;;;;;;;;;;5055741;28;20450;-58
2021/05/31 13:09:05;;;;;;;2.63;1.50;;;;;;;;;;5055567;28;20859;-58
2021/05/31 13:11:42;;;;;;;1.70;1.50;;;;;;;;;;5056801;28;20459;-58
2021/05/31 13:14:19;;;;;;;1.23;1.13;;;;;;;;;;5055736;28;20461;-60
2021/05/31 13:16:58;;;;;;;2.23;1.50;;;;;;;;;;5055512;28;20534;-58
2021/05/31 13:19:27;;;;;;;1.90;1.70;;;;;;;;;;5055978;28;20437;-58
2021/05/31 13:21:57;;;;;;;2.50;1.80;;;;;;;;;;5055784;28;20443;-58
2021/05/31 13:24:25;;;;;;;1.70;1.30;;;;;;;;;;5056017;28;20521;-58
2021/05/31 13:26:51;;;;;;;1.63;1.20;;;;;;;;;;5055334;28;20454;-59
2021/05/31 13:29:21;;;;;;;2.80;1.43;;;;;;;;;;5055509;28;20455;-58
2021/05/31 13:31:48;;;;;;;2.87;1.63;;;;;;;;;;5055716;28;20459;-56
2021/05/31 13:34:15;;;;;;;2.67;1.37;;;;;;;;;;5055801;28;20475;-57
2021/05/31 13:36:43;;;;;;;2.50;1.40;;;;;;;;;;5056433;28;20451;-58
2021/05/31 13:39:10;;;;;;;2.00;1.70;;;;;;;;;;5102180;22;20584;-58
2021/05/31 13:41:38;;;;;;;1.50;1.40;;;;;;;;;;5076005;28;20447;-58
2021/05/31 13:44:08;;;;;;;3.80;2.00;;;;;;;;;;5075659;28;20821;-60
2021/05/31 13:46:36;;;;;;;2.93;1.50;;;;;;;;;;5076140;28;20429;-59
2021/05/31 13:49:03;;;;;;;7.63;1.40;;;;;;;;;;5075102;28;20572;-58
2021/05/31 13:51:29;;;;;;;1.70;1.23;;;;;;;;;;5075974;28;20458;-59
2021/05/31 13:53:58;;;;;;;4.30;2.43;;;;;;;;;;5075442;28;20818;-59
2021/05/31 13:56:24;;;;;;;2.03;1.47;;;;;;;;;;5075129;28;20496;-62
2021/05/31 13:58:51;;;;;;;1.57;1.10;;;;;;;;;;5074700;28;20513;-61
2021/05/31 14:01:18;;;;;;;2.80;1.67;;;;;;;;;;5074765;28;20449;-60
2021/05/31 14:03:45;;;;;;;2.40;1.57;;;;;;;;;;5074469;28;20449;-60
2021/05/31 14:06:11;;;;;;;3.67;1.50;;;;;;;;;;5075066;28;20450;-60
2021/05/31 14:08:38;;;;;;;2.47;1.13;;;;;;;;;;5074574;28;20502;-61
2021/05/31 14:11:06;;;;;;;1.43;1.20;;;;;;;;;;5080688;22;20874;-59
2021/05/31 14:13:33;;;;;;;2.70;1.30;;;;;;;;;;5054328;28;20448;-60
2021/05/31 14:16:00;;;;;;;1.93;1.30;;;;;;;;;;5054902;28;20501;-61
2021/05/31 14:18:26;;;;;;;4.30;1.50;;;;;;;;;;5054645;28;20444;-60
2021/05/31 14:20:53;;;;;;;1.50;1.23;;;;;;;;;;5054520;28;20467;-59
2021/05/31 14:23:20;;;;;;;2.23;1.43;;;;;;;;;;5056025;28;20448;-60
2021/05/31 14:25:47;;;;;;;3.63;1.47;;;;;;;;;;5054390;28;20444;-61
2021/05/31 14:28:15;;;;;;;2.27;1.50;;;;;;;;;;5054374;28;20476;-57
2021/05/31 14:33:10;;;;;;;4.47;1.83;;;;;;;;;;5080276;22;20516;-60
2021/05/31 14:35:38;;;;;;;2.07;1.20;;;;;;;;;;5054466;28;20828;-59
2021/05/31 14:38:05;;;;;;;2.03;1.60;;;;;;;;;;5054333;28;20454;-59
2021/05/31 14:40:32;;;;;;;4.40;1.33;;;;;;;;;;5054318;28;20462;-61
2021/05/31 14:43:00;;;;;;;2.63;1.30;;;;;;;;;;5054243;28;20866;-60
2021/05/31 14:45:29;;;;;;;3.70;1.30;;;;;;;;;;5053716;28;20458;-58
2021/05/31 14:47:55;;;;;;;2.53;1.60;;;;;;;;;;5053495;28;21013;-60
2021/05/31 14:50:22;;;;;;;1.83;1.50;;;;;;;;;;5053416;28;20815;-59
2021/05/31 14:52:49;;;;;;;2.23;1.97;;;;;;;;;;5053416;28;20467;-60
2021/05/31 14:55:16;;;;;;;3.90;1.63;;;;;;;;;;5090823;22;20490;-59
2021/05/31 14:57:43;;;;;;;2.80;1.80;;;;;;;;;;5074048;28;20841;-60
2021/05/31 15:00:11;;;;;;;1.70;1.43;;;;;;;;;;5073876;28;20826;-60
2021/05/31 15:02:40;;;;;;;4.63;1.80;;;;;;;;;;5074056;28;20461;-59
2021/05/31 15:05:09;;;;;;;2.20;1.40;;;;;;;;;;5073850;28;20461;-61